Strona główna
METAR-TAF:

METAR-TAF

Lotnisko :

Air_Force_Base

Plattsburgh, Nowy Jork, Stany Zjednoczone

Szerokość geograficzna: 44-39N, Długość geograficzna: 073-28W, wysokość: 72 m

Aktualna obserwacja pogody

Raport powstał 37 minut temu, godzina 16:53 UTC
Wiatr 6 kt od północny wschód
Temperatura 24°C
Wilgotność 27%
Ciśnienie 1012 hPa
Widzialność: 16.1 km
bezchmurnie

METAR: KPBG 241653Z AUTO 04006KT 10SM CLR 24/04 A2987 RMK AO2 SLP114 T02390044

czas: 13:30 (17:30 UTC)

Prognoza

Raport powstał 6 godziny i 5 minut temu, godzina 11:25 UTC
Prognoza ważna od 24 godzina 12 UTC do 25 godzina 12 UTC
Wiatr kt od północ
Widzialność: 10 km
bezchmurnie
Od 24 godzina 1600 UTC
Wiatr 5 kt od północno-północny zachód
Widzialność: 10 km
Mało chmury na wysokości 25000 ft
Od 25 godzina 0800 UTC
Wiatr 5 kt od południowo-południowy wschód
Widzialność: 10 km
Przerywane chmury na wysokości 7000 ft

TAF: KPBG 241125Z 2412/2512 00000KT P6SM SKC FM241600 33005KT P6SM FEW250 FM250800 15005KT P6SM BKN070

Obserwacja i prognoza pogody dla ponad 4000 lotnisk (raport METAR i TAF).

Dostępne stacje oznaczono żółtymi i czerwonymi punktami na mapie.

Najedź kursorem aby zobaczyć nazwę stacji.

Kliknij aby zobaczyć obserwacje i prognozy pogody.

Aby zmienić mapę: kliknij na zielony przycisk z czarnym krzyżykiem, aby powiększyć; na zielony przycisk z myślnikiem, aby pomniejszyć; na zielone strzałki, aby przejść do map sąsiednich.


METAR-TAF: